Terminal Aerodrome Forecast
Issued by NWS Melbourne, FL

Home | Current Version | Previous Version | Text Only | Print | Product List | Glossary On
Versions: 1 2 3 4 5 6 7 8 9 10 11 12 13 14
765
FTUS42 KMLB 292143 CCA
TAFMLB
TAF COR
KMLB 292143Z 2922/3018 10011KT P6SM SCT050 SCT250
      TEMPO 2922/2923 31010G15KT BKN050
     FM300100 19004KT P6SM FEW050 SCT250=

USA.gov is the U.S. government's official web portal to all federal, state and local government web resources and services.